sensor_id;sensor_type;location;lat;lon;timestamp;temperature;humidity
37356;DHT22;48747;50.250;18.848;2023-04-24T00:02:06;13.50;99.90
37356;DHT22;48747;50.250;18.848;2023-04-24T00:04:11;13.50;99.90
37356;DHT22;48747;50.250;18.848;2023-04-24T00:06:16;13.50;99.90
37356;DHT22;48747;50.250;18.848;2023-04-24T00:08:26;13.50;99.40
37356;DHT22;48747;50.250;18.848;2023-04-24T00:10:27;13.50;98.90
37356;DHT22;48747;50.250;18.848;2023-04-24T00:12:31;13.40;98.80
37356;DHT22;48747;50.250;18.848;2023-04-24T00:14:36;13.40;98.90
37356;DHT22;48747;50.250;18.848;2023-04-24T00:16:41;13.40;99.90
37356;DHT22;48747;50.250;18.848;2023-04-24T00:18:46;13.40;99.20
37356;DHT22;48747;50.250;18.848;2023-04-24T00:20:51;13.30;98.80
37356;DHT22;48747;50.250;18.848;2023-04-24T00:22:59;13.30;98.40
37356;DHT22;48747;50.250;18.848;2023-04-24T00:25:01;13.40;98.50
37356;DHT22;48747;50.250;18.848;2023-04-24T00:27:05;13.30;97.90
37356;DHT22;48747;50.250;18.848;2023-04-24T00:29:08;13.40;98.50
37356;DHT22;48747;50.250;18.848;2023-04-24T00:31:14;13.40;97.70
37356;DHT22;48747;50.250;18.848;2023-04-24T00:33:19;13.40;96.50
37356;DHT22;48747;50.250;18.848;2023-04-24T00:35:24;13.50;93.50
37356;DHT22;48747;50.250;18.848;2023-04-24T00:37:32;13.50;94.00
37356;DHT22;48747;50.250;18.848;2023-04-24T00:39:32;13.60;92.90
37356;DHT22;48747;50.250;18.848;2023-04-24T00:41:35;13.60;92.10
37356;DHT22;48747;50.250;18.848;2023-04-24T00:43:39;13.70;90.90
37356;DHT22;48747;50.250;18.848;2023-04-24T00:45:42;13.70;91.10
37356;DHT22;48747;50.250;18.848;2023-04-24T00:47:52;13.70;91.20
37356;DHT22;48747;50.250;18.848;2023-04-24T00:49:57;13.70;90.90
37356;DHT22;48747;50.250;18.848;2023-04-24T00:52:00;13.70;90.90
37356;DHT22;48747;50.250;18.848;2023-04-24T00:54:05;13.70;90.70
37356;DHT22;48747;50.250;18.848;2023-04-24T00:56:08;13.70;90.20
37356;DHT22;48747;50.250;18.848;2023-04-24T00:58:13;13.70;90.10
37356;DHT22;48747;50.250;18.848;2023-04-24T01:00:16;13.60;89.50
37356;DHT22;48747;50.250;18.848;2023-04-24T01:02:21;13.60;90.10
37356;DHT22;48747;50.250;18.848;2023-04-24T01:04:27;13.60;90.20
37356;DHT22;48747;50.250;18.848;2023-04-24T01:06:30;13.60;90.30
37356;DHT22;48747;50.250;18.848;2023-04-24T01:08:36;13.50;90.10
37356;DHT22;48747;50.250;18.848;2023-04-24T01:10:41;13.50;89.90
37356;DHT22;48747;50.250;18.848;2023-04-24T01:12:50;13.50;89.10
37356;DHT22;48747;50.250;18.848;2023-04-24T01:14:49;13.50;88.00
37356;DHT22;48747;50.250;18.848;2023-04-24T01:16:54;13.50;88.40
37356;DHT22;48747;50.250;18.848;2023-04-24T01:18:59;13.50;88.80
37356;DHT22;48747;50.250;18.848;2023-04-24T01:21:04;13.50;89.20
37356;DHT22;48747;50.250;18.848;2023-04-24T01:23:09;13.50;88.30
37356;DHT22;48747;50.250;18.848;2023-04-24T01:25:13;13.40;87.80
37356;DHT22;48747;50.250;18.848;2023-04-24T01:27:16;13.40;88.00
37356;DHT22;48747;50.250;18.848;2023-04-24T01:29:21;13.30;87.60
37356;DHT22;48747;50.250;18.848;2023-04-24T01:31:27;13.40;86.70
37356;DHT22;48747;50.250;18.848;2023-04-24T01:33:34;13.30;87.90
37356;DHT22;48747;50.250;18.848;2023-04-24T01:35:39;13.30;86.80
37356;DHT22;48747;50.250;18.848;2023-04-24T01:37:44;13.30;87.40
37356;DHT22;48747;50.250;18.848;2023-04-24T01:39:49;13.20;86.40
37356;DHT22;48747;50.250;18.848;2023-04-24T01:41:54;13.20;86.30
37356;DHT22;48747;50.250;18.848;2023-04-24T01:43:59;13.20;86.30
37356;DHT22;48747;50.250;18.848;2023-04-24T01:46:03;13.10;86.50
37356;DHT22;48747;50.250;18.848;2023-04-24T01:48:07;13.20;86.80
37356;DHT22;48747;50.250;18.848;2023-04-24T01:50:10;13.10;86.30
37356;DHT22;48747;50.250;18.848;2023-04-24T01:52:13;13.00;87.30
37356;DHT22;48747;50.250;18.848;2023-04-24T01:54:17;13.00;88.40
37356;DHT22;48747;50.250;18.848;2023-04-24T01:56:23;12.90;87.10
37356;DHT22;48747;50.250;18.848;2023-04-24T01:58:27;12.90;87.40
37356;DHT22;48747;50.250;18.848;2023-04-24T02:00:30;12.90;88.10
37356;DHT22;48747;50.250;18.848;2023-04-24T02:02:34;12.90;87.30
37356;DHT22;48747;50.250;18.848;2023-04-24T02:04:40;12.90;86.80
37356;DHT22;48747;50.250;18.848;2023-04-24T02:06:44;12.90;86.60
37356;DHT22;48747;50.250;18.848;2023-04-24T02:08:48;12.80;86.50
37356;DHT22;48747;50.250;18.848;2023-04-24T02:13:10;12.80;86.40
37356;DHT22;48747;50.250;18.848;2023-04-24T02:15:14;12.90;87.10
37356;DHT22;48747;50.250;18.848;2023-04-24T02:17:18;12.90;87.20
37356;DHT22;48747;50.250;18.848;2023-04-24T02:19:28;12.90;85.50
37356;DHT22;48747;50.250;18.848;2023-04-24T02:21:29;12.90;85.90
37356;DHT22;48747;50.250;18.848;2023-04-24T02:23:34;13.00;86.30
37356;DHT22;48747;50.250;18.848;2023-04-24T02:25:39;12.90;84.70
37356;DHT22;48747;50.250;18.848;2023-04-24T02:27:42;12.90;84.60
37356;DHT22;48747;50.250;18.848;2023-04-24T02:29:49;13.00;83.60
37356;DHT22;48747;50.250;18.848;2023-04-24T02:31:55;13.00;85.00
37356;DHT22;48747;50.250;18.848;2023-04-24T02:33:59;13.00;82.50
37356;DHT22;48747;50.250;18.848;2023-04-24T02:36:06;13.00;83.40
37356;DHT22;48747;50.250;18.848;2023-04-24T02:38:10;13.00;83.50
37356;DHT22;48747;50.250;18.848;2023-04-24T02:40:13;13.00;82.80
37356;DHT22;48747;50.250;18.848;2023-04-24T02:42:16;13.00;83.30
37356;DHT22;48747;50.250;18.848;2023-04-24T02:44:20;13.00;83.20
37356;DHT22;48747;50.250;18.848;2023-04-24T02:46:24;13.00;82.60
37356;DHT22;48747;50.250;18.848;2023-04-24T02:48:29;13.10;81.70
37356;DHT22;48747;50.250;18.848;2023-04-24T02:50:32;13.10;81.70
37356;DHT22;48747;50.250;18.848;2023-04-24T02:52:40;13.10;82.80
37356;DHT22;48747;50.250;18.848;2023-04-24T02:54:43;13.00;81.30
37356;DHT22;48747;50.250;18.848;2023-04-24T02:56:46;13.00;80.90
37356;DHT22;48747;50.250;18.848;2023-04-24T02:58:50;13.00;81.80
37356;DHT22;48747;50.250;18.848;2023-04-24T03:01:00;13.00;81.60
37356;DHT22;48747;50.250;18.848;2023-04-24T03:03:05;13.00;81.00
37356;DHT22;48747;50.250;18.848;2023-04-24T03:05:10;13.00;80.70
37356;DHT22;48747;50.250;18.848;2023-04-24T03:07:15;13.00;81.40
37356;DHT22;48747;50.250;18.848;2023-04-24T03:09:20;13.00;81.50
37356;DHT22;48747;50.250;18.848;2023-04-24T03:11:24;13.00;81.30
37356;DHT22;48747;50.250;18.848;2023-04-24T03:13:33;13.00;81.30
37356;DHT22;48747;50.250;18.848;2023-04-24T03:15:34;12.90;81.80
37356;DHT22;48747;50.250;18.848;2023-04-24T03:17:38;12.90;80.60
37356;DHT22;48747;50.250;18.848;2023-04-24T03:19:42;13.00;79.40
37356;DHT22;48747;50.250;18.848;2023-04-24T03:21:46;13.00;79.30
37356;DHT22;48747;50.250;18.848;2023-04-24T03:23:49;13.00;80.10
37356;DHT22;48747;50.250;18.848;2023-04-24T03:25:54;13.00;81.30
37356;DHT22;48747;50.250;18.848;2023-04-24T03:27:59;13.00;79.00
37356;DHT22;48747;50.250;18.848;2023-04-24T03:30:02;13.10;78.10
37356;DHT22;48747;50.250;18.848;2023-04-24T03:32:06;13.00;78.70
37356;DHT22;48747;50.250;18.848;2023-04-24T03:34:12;13.00;78.40
37356;DHT22;48747;50.250;18.848;2023-04-24T03:36:17;13.00;78.40
37356;DHT22;48747;50.250;18.848;2023-04-24T03:38:21;13.10;78.70
37356;DHT22;48747;50.250;18.848;2023-04-24T03:40:24;13.00;78.70
37356;DHT22;48747;50.250;18.848;2023-04-24T03:42:29;13.10;78.80
37356;DHT22;48747;50.250;18.848;2023-04-24T03:44:32;13.00;77.70
37356;DHT22;48747;50.250;18.848;2023-04-24T03:46:38;13.10;77.90
37356;DHT22;48747;50.250;18.848;2023-04-24T03:48:41;13.10;77.30
37356;DHT22;48747;50.250;18.848;2023-04-24T03:50:46;13.20;78.10
37356;DHT22;48747;50.250;18.848;2023-04-24T03:52:49;13.20;77.80
37356;DHT22;48747;50.250;18.848;2023-04-24T03:54:54;13.20;76.20
37356;DHT22;48747;50.250;18.848;2023-04-24T03:56:57;13.30;77.40
37356;DHT22;48747;50.250;18.848;2023-04-24T03:59:02;13.30;75.60
37356;DHT22;48747;50.250;18.848;2023-04-24T04:01:05;13.30;77.30
37356;DHT22;48747;50.250;18.848;2023-04-24T04:03:10;13.30;76.80
37356;DHT22;48747;50.250;18.848;2023-04-24T04:05:17;13.30;75.80
37356;DHT22;48747;50.250;18.848;2023-04-24T04:07:22;13.30;75.80
37356;DHT22;48747;50.250;18.848;2023-04-24T04:09:27;13.30;76.00
37356;DHT22;48747;50.250;18.848;2023-04-24T04:11:34;13.30;74.80
37356;DHT22;48747;50.250;18.848;2023-04-24T04:13:40;13.30;74.50
37356;DHT22;48747;50.250;18.848;2023-04-24T04:15:45;13.30;76.20
37356;DHT22;48747;50.250;18.848;2023-04-24T04:17:49;13.30;74.30
37356;DHT22;48747;50.250;18.848;2023-04-24T04:19:52;13.30;75.20
37356;DHT22;48747;50.250;18.848;2023-04-24T04:21:56;13.40;75.40
37356;DHT22;48747;50.250;18.848;2023-04-24T04:24:00;13.40;75.30
37356;DHT22;48747;50.250;18.848;2023-04-24T04:26:08;13.40;75.50
37356;DHT22;48747;50.250;18.848;2023-04-24T04:28:16;13.40;74.30
37356;DHT22;48747;50.250;18.848;2023-04-24T04:30:17;13.50;74.10
37356;DHT22;48747;50.250;18.848;2023-04-24T04:32:20;13.50;73.60
37356;DHT22;48747;50.250;18.848;2023-04-24T04:34:25;13.60;73.40
37356;DHT22;48747;50.250;18.848;2023-04-24T04:36:30;13.70;73.80
37356;DHT22;48747;50.250;18.848;2023-04-24T04:38:33;13.70;72.50
37356;DHT22;48747;50.250;18.848;2023-04-24T04:40:41;13.80;72.20
37356;DHT22;48747;50.250;18.848;2023-04-24T04:42:46;13.90;71.50
37356;DHT22;48747;50.250;18.848;2023-04-24T04:44:53;14.00;71.80
37356;DHT22;48747;50.250;18.848;2023-04-24T04:46:55;14.10;72.00
37356;DHT22;48747;50.250;18.848;2023-04-24T04:51:10;14.30;69.90
37356;DHT22;48747;50.250;18.848;2023-04-24T04:53:13;14.30;70.00
37356;DHT22;48747;50.250;18.848;2023-04-24T04:55:25;14.30;70.00
37356;DHT22;48747;50.250;18.848;2023-04-24T04:57:27;14.40;69.80
37356;DHT22;48747;50.250;18.848;2023-04-24T04:59:32;14.40;69.30
37356;DHT22;48747;50.250;18.848;2023-04-24T05:01:40;14.50;68.90
37356;DHT22;48747;50.250;18.848;2023-04-24T05:03:43;14.50;68.80
37356;DHT22;48747;50.250;18.848;2023-04-24T05:05:46;14.50;69.10
37356;DHT22;48747;50.250;18.848;2023-04-24T05:07:53;14.50;68.90
37356;DHT22;48747;50.250;18.848;2023-04-24T05:10:02;14.60;69.80
37356;DHT22;48747;50.250;18.848;2023-04-24T05:12:08;14.70;69.80
37356;DHT22;48747;50.250;18.848;2023-04-24T05:14:09;14.70;69.30
37356;DHT22;48747;50.250;18.848;2023-04-24T05:16:15;14.80;69.20
37356;DHT22;48747;50.250;18.848;2023-04-24T05:18:19;14.80;68.80
37356;DHT22;48747;50.250;18.848;2023-04-24T05:20:22;14.90;69.60
37356;DHT22;48747;50.250;18.848;2023-04-24T05:22:25;14.80;68.90
37356;DHT22;48747;50.250;18.848;2023-04-24T05:24:34;14.80;68.30
37356;DHT22;48747;50.250;18.848;2023-04-24T05:26:38;14.80;69.20
37356;DHT22;48747;50.250;18.848;2023-04-24T05:28:43;14.80;68.10
37356;DHT22;48747;50.250;18.848;2023-04-24T05:30:48;14.80;67.80
37356;DHT22;48747;50.250;18.848;2023-04-24T05:32:51;14.80;68.70
37356;DHT22;48747;50.250;18.848;2023-04-24T05:34:55;14.80;70.10
37356;DHT22;48747;50.250;18.848;2023-04-24T05:36:59;14.80;69.10
37356;DHT22;48747;50.250;18.848;2023-04-24T05:39:06;14.80;69.50
37356;DHT22;48747;50.250;18.848;2023-04-24T05:41:10;14.90;70.00
37356;DHT22;48747;50.250;18.848;2023-04-24T05:43:20;15.00;69.00
37356;DHT22;48747;50.250;18.848;2023-04-24T05:45:20;15.10;67.60
37356;DHT22;48747;50.250;18.848;2023-04-24T05:47:28;15.20;68.10
37356;DHT22;48747;50.250;18.848;2023-04-24T05:49:30;15.30;67.60
37356;DHT22;48747;50.250;18.848;2023-04-24T05:51:35;15.50;67.30
37356;DHT22;48747;50.250;18.848;2023-04-24T05:53:44;15.60;66.10
37356;DHT22;48747;50.250;18.848;2023-04-24T05:55:45;15.80;66.30
37356;DHT22;48747;50.250;18.848;2023-04-24T05:57:50;15.90;66.00
37356;DHT22;48747;50.250;18.848;2023-04-24T05:59:53;16.10;65.80
37356;DHT22;48747;50.250;18.848;2023-04-24T06:01:58;16.20;64.90
37356;DHT22;48747;50.250;18.848;2023-04-24T06:04:03;16.40;63.90
37356;DHT22;48747;50.250;18.848;2023-04-24T06:06:15;16.60;61.90
37356;DHT22;48747;50.250;18.848;2023-04-24T06:08:20;16.70;61.60
37356;DHT22;48747;50.250;18.848;2023-04-24T06:10:36;16.70;61.50
37356;DHT22;48747;50.250;18.848;2023-04-24T06:12:38;16.70;60.60
37356;DHT22;48747;50.250;18.848;2023-04-24T06:14:46;16.70;60.60
37356;DHT22;48747;50.250;18.848;2023-04-24T06:16:51;16.80;61.00
37356;DHT22;48747;50.250;18.848;2023-04-24T06:18:54;16.90;61.00
37356;DHT22;48747;50.250;18.848;2023-04-24T06:20:57;16.90;60.30
37356;DHT22;48747;50.250;18.848;2023-04-24T06:23:02;17.00;60.80
37356;DHT22;48747;50.250;18.848;2023-04-24T06:25:05;17.00;61.60
37356;DHT22;48747;50.250;18.848;2023-04-24T06:27:09;17.10;61.20
37356;DHT22;48747;50.250;18.848;2023-04-24T06:29:15;17.20;60.80
37356;DHT22;48747;50.250;18.848;2023-04-24T06:31:18;17.20;59.50
37356;DHT22;48747;50.250;18.848;2023-04-24T06:33:21;17.20;59.70
37356;DHT22;48747;50.250;18.848;2023-04-24T06:35:25;17.20;59.30
37356;DHT22;48747;50.250;18.848;2023-04-24T06:37:28;17.20;58.50
37356;DHT22;48747;50.250;18.848;2023-04-24T06:39:34;17.20;58.30
37356;DHT22;48747;50.250;18.848;2023-04-24T06:41:37;17.20;58.50
37356;DHT22;48747;50.250;18.848;2023-04-24T06:43:41;17.20;58.40
37356;DHT22;48747;50.250;18.848;2023-04-24T06:45:45;17.30;58.80
37356;DHT22;48747;50.250;18.848;2023-04-24T06:47:49;17.40;59.00
37356;DHT22;48747;50.250;18.848;2023-04-24T06:49:52;17.50;58.10
37356;DHT22;48747;50.250;18.848;2023-04-24T06:51:57;17.60;57.80
37356;DHT22;48747;50.250;18.848;2023-04-24T06:54:00;17.70;58.00
37356;DHT22;48747;50.250;18.848;2023-04-24T06:56:04;17.70;57.70
37356;DHT22;48747;50.250;18.848;2023-04-24T06:58:09;17.80;57.60
37356;DHT22;48747;50.250;18.848;2023-04-24T07:00:15;17.90;56.30
37356;DHT22;48747;50.250;18.848;2023-04-24T07:02:18;18.10;54.70
37356;DHT22;48747;50.250;18.848;2023-04-24T07:04:23;18.20;54.10
37356;DHT22;48747;50.250;18.848;2023-04-24T07:06:28;18.30;53.10
37356;DHT22;48747;50.250;18.848;2023-04-24T07:08:32;18.30;53.90
37356;DHT22;48747;50.250;18.848;2023-04-24T07:10:45;18.40;53.00
37356;DHT22;48747;50.250;18.848;2023-04-24T07:12:44;18.40;52.80
37356;DHT22;48747;50.250;18.848;2023-04-24T07:14:50;18.50;52.90
37356;DHT22;48747;50.250;18.848;2023-04-24T07:16:53;18.60;52.80
37356;DHT22;48747;50.250;18.848;2023-04-24T07:18:56;18.70;53.30
37356;DHT22;48747;50.250;18.848;2023-04-24T07:20:59;18.80;51.70
37356;DHT22;48747;50.250;18.848;2023-04-24T07:23:03;18.90;51.50
37356;DHT22;48747;50.250;18.848;2023-04-24T07:25:06;18.90;52.40
37356;DHT22;48747;50.250;18.848;2023-04-24T07:27:12;19.00;50.00
37356;DHT22;48747;50.250;18.848;2023-04-24T07:29:16;19.00;50.80
37356;DHT22;48747;50.250;18.848;2023-04-24T07:31:19;19.00;49.90
37356;DHT22;48747;50.250;18.848;2023-04-24T07:33:23;19.10;49.10
37356;DHT22;48747;50.250;18.848;2023-04-24T07:35:32;19.10;50.10
37356;DHT22;48747;50.250;18.848;2023-04-24T07:37:32;19.20;48.00
37356;DHT22;48747;50.250;18.848;2023-04-24T07:39:36;19.10;48.50
37356;DHT22;48747;50.250;18.848;2023-04-24T07:41:40;19.10;49.50
37356;DHT22;48747;50.250;18.848;2023-04-24T07:43:44;19.00;49.10
37356;DHT22;48747;50.250;18.848;2023-04-24T07:45:50;19.00;49.50
37356;DHT22;48747;50.250;18.848;2023-04-24T07:47:52;19.00;49.50
37356;DHT22;48747;50.250;18.848;2023-04-24T07:50:00;19.20;51.40
37356;DHT22;48747;50.250;18.848;2023-04-24T07:52:00;19.20;50.00
37356;DHT22;48747;50.250;18.848;2023-04-24T07:54:09;19.30;49.30
37356;DHT22;48747;50.250;18.848;2023-04-24T07:56:10;19.40;49.70
37356;DHT22;48747;50.250;18.848;2023-04-24T07:58:13;19.60;48.90
37356;DHT22;48747;50.250;18.848;2023-04-24T08:00:18;19.60;48.20
37356;DHT22;48747;50.250;18.848;2023-04-24T08:02:21;19.60;49.40
37356;DHT22;48747;50.250;18.848;2023-04-24T08:04:26;19.70;48.60
37356;DHT22;48747;50.250;18.848;2023-04-24T08:06:30;19.80;49.10
37356;DHT22;48747;50.250;18.848;2023-04-24T08:08:35;19.90;48.80
37356;DHT22;48747;50.250;18.848;2023-04-24T08:10:38;19.90;48.50
37356;DHT22;48747;50.250;18.848;2023-04-24T08:12:42;20.10;48.10
37356;DHT22;48747;50.250;18.848;2023-04-24T08:14:50;20.20;48.50
37356;DHT22;48747;50.250;18.848;2023-04-24T08:16:49;20.40;48.30
37356;DHT22;48747;50.250;18.848;2023-04-24T08:18:53;20.40;46.80
37356;DHT22;48747;50.250;18.848;2023-04-24T08:20:56;20.40;47.00
37356;DHT22;48747;50.250;18.848;2023-04-24T08:23:01;20.50;47.40
37356;DHT22;48747;50.250;18.848;2023-04-24T08:25:06;20.60;47.90
37356;DHT22;48747;50.250;18.848;2023-04-24T08:27:10;20.70;47.60
37356;DHT22;48747;50.250;18.848;2023-04-24T08:29:13;20.70;48.30
37356;DHT22;48747;50.250;18.848;2023-04-24T08:31:20;20.70;48.40
37356;DHT22;48747;50.250;18.848;2023-04-24T08:33:22;20.60;48.50
37356;DHT22;48747;50.250;18.848;2023-04-24T08:35:26;20.60;47.50
37356;DHT22;48747;50.250;18.848;2023-04-24T08:37:29;20.50;49.00
37356;DHT22;48747;50.250;18.848;2023-04-24T08:39:32;20.50;49.20
37356;DHT22;48747;50.250;18.848;2023-04-24T08:41:36;20.50;48.40
37356;DHT22;48747;50.250;18.848;2023-04-24T08:43:42;20.40;49.10
37356;DHT22;48747;50.250;18.848;2023-04-24T08:45:47;20.40;47.30
37356;DHT22;48747;50.250;18.848;2023-04-24T08:47:50;20.10;48.00
37356;DHT22;48747;50.250;18.848;2023-04-24T08:49:56;20.30;49.00
37356;DHT22;48747;50.250;18.848;2023-04-24T08:52:01;20.20;48.60
37356;DHT22;48747;50.250;18.848;2023-04-24T08:54:05;20.10;47.40
37356;DHT22;48747;50.250;18.848;2023-04-24T08:56:09;20.20;49.80
37356;DHT22;48747;50.250;18.848;2023-04-24T08:58:16;20.40;49.00
37356;DHT22;48747;50.250;18.848;2023-04-24T09:00:21;20.40;49.30
37356;DHT22;48747;50.250;18.848;2023-04-24T09:02:26;20.60;49.80
37356;DHT22;48747;50.250;18.848;2023-04-24T09:04:29;20.70;48.90
37356;DHT22;48747;50.250;18.848;2023-04-24T09:06:33;20.70;49.10
37356;DHT22;48747;50.250;18.848;2023-04-24T09:08:41;20.90;50.40
37356;DHT22;48747;50.250;18.848;2023-04-24T09:10:41;21.00;49.70
37356;DHT22;48747;50.250;18.848;2023-04-24T09:12:45;21.00;50.00
37356;DHT22;48747;50.250;18.848;2023-04-24T09:14:50;21.10;50.20
37356;DHT22;48747;50.250;18.848;2023-04-24T09:16:53;21.10;49.40
37356;DHT22;48747;50.250;18.848;2023-04-24T09:18:56;21.10;49.90
37356;DHT22;48747;50.250;18.848;2023-04-24T09:21:02;21.20;50.60
37356;DHT22;48747;50.250;18.848;2023-04-24T09:23:06;21.30;50.10
37356;DHT22;48747;50.250;18.848;2023-04-24T09:25:11;21.40;48.40
37356;DHT22;48747;50.250;18.848;2023-04-24T09:27:14;21.50;48.80
37356;DHT22;48747;50.250;18.848;2023-04-24T09:29:19;21.60;49.40
37356;DHT22;48747;50.250;18.848;2023-04-24T09:31:22;21.70;49.30
37356;DHT22;48747;50.250;18.848;2023-04-24T09:33:26;21.70;49.20
37356;DHT22;48747;50.250;18.848;2023-04-24T09:35:31;21.80;48.40
37356;DHT22;48747;50.250;18.848;2023-04-24T09:37:40;22.00;49.60
37356;DHT22;48747;50.250;18.848;2023-04-24T09:39:43;22.20;48.40
37356;DHT22;48747;50.250;18.848;2023-04-24T09:41:51;22.30;46.70
37356;DHT22;48747;50.250;18.848;2023-04-24T09:44:09;22.40;47.70
37356;DHT22;48747;50.250;18.848;2023-04-24T09:46:06;22.50;48.20
37356;DHT22;48747;50.250;18.848;2023-04-24T09:48:11;22.60;47.20
37356;DHT22;48747;50.250;18.848;2023-04-24T09:50:17;22.50;47.90
37356;DHT22;48747;50.250;18.848;2023-04-24T09:52:20;22.40;47.50
37356;DHT22;48747;50.250;18.848;2023-04-24T09:54:24;22.20;47.80
37356;DHT22;48747;50.250;18.848;2023-04-24T09:56:32;22.00;48.30
37356;DHT22;48747;50.250;18.848;2023-04-24T09:58:41;21.90;48.30
37356;DHT22;48747;50.250;18.848;2023-04-24T10:00:40;21.80;48.50
37356;DHT22;48747;50.250;18.848;2023-04-24T10:02:43;21.70;48.80
37356;DHT22;48747;50.250;18.848;2023-04-24T10:04:57;21.60;49.20
37356;DHT22;48747;50.250;18.848;2023-04-24T10:07:03;21.60;49.00
37356;DHT22;48747;50.250;18.848;2023-04-24T10:09:09;21.50;49.00
37356;DHT22;48747;50.250;18.848;2023-04-24T10:11:14;21.60;49.00
37356;DHT22;48747;50.250;18.848;2023-04-24T10:13:24;21.70;50.40
37356;DHT22;48747;50.250;18.848;2023-04-24T10:15:26;21.90;49.50
37356;DHT22;48747;50.250;18.848;2023-04-24T10:17:36;22.00;48.40
37356;DHT22;48747;50.250;18.848;2023-04-24T10:19:46;21.90;48.70
37356;DHT22;48747;50.250;18.848;2023-04-24T10:21:48;22.00;49.10
37356;DHT22;48747;50.250;18.848;2023-04-24T10:23:57;21.90;48.10
37356;DHT22;48747;50.250;18.848;2023-04-24T10:26:03;21.80;48.70
37356;DHT22;48747;50.250;18.848;2023-04-24T10:28:10;21.90;50.20
37356;DHT22;48747;50.250;18.848;2023-04-24T10:30:24;21.90;48.60
37356;DHT22;48747;50.250;18.848;2023-04-24T10:32:31;21.90;48.80
37356;DHT22;48747;50.250;18.848;2023-04-24T10:34:35;21.90;49.50
37356;DHT22;48747;50.250;18.848;2023-04-24T10:36:44;21.90;48.60
37356;DHT22;48747;50.250;18.848;2023-04-24T10:38:49;21.80;49.20
37356;DHT22;48747;50.250;18.848;2023-04-24T10:41:13;21.70;49.20
37356;DHT22;48747;50.250;18.848;2023-04-24T10:43:16;21.60;49.10
37356;DHT22;48747;50.250;18.848;2023-04-24T10:45:27;21.60;49.30
37356;DHT22;48747;50.250;18.848;2023-04-24T10:47:39;21.50;49.70
37356;DHT22;48747;50.250;18.848;2023-04-24T10:49:49;21.40;50.10
37356;DHT22;48747;50.250;18.848;2023-04-24T10:51:59;21.20;50.00
37356;DHT22;48747;50.250;18.848;2023-04-24T10:54:06;21.10;51.10
37356;DHT22;48747;50.250;18.848;2023-04-24T10:56:09;21.10;51.00
37356;DHT22;48747;50.250;18.848;2023-04-24T10:58:18;21.00;50.60
37356;DHT22;48747;50.250;18.848;2023-04-24T11:00:24;21.00;52.00
37356;DHT22;48747;50.250;18.848;2023-04-24T11:02:37;20.80;51.50
37356;DHT22;48747;50.250;18.848;2023-04-24T11:04:40;20.60;51.50
37356;DHT22;48747;50.250;18.848;2023-04-24T11:06:51;20.40;51.90
37356;DHT22;48747;50.250;18.848;2023-04-24T11:08:50;20.30;52.80
37356;DHT22;48747;50.250;18.848;2023-04-24T11:10:59;20.20;52.30
37356;DHT22;48747;50.250;18.848;2023-04-24T11:13:03;20.00;53.70
37356;DHT22;48747;50.250;18.848;2023-04-24T11:15:12;19.80;53.80
37356;DHT22;48747;50.250;18.848;2023-04-24T11:17:34;19.70;54.30
37356;DHT22;48747;50.250;18.848;2023-04-24T11:19:39;19.70;54.50
37356;DHT22;48747;50.250;18.848;2023-04-24T11:22:01;19.70;55.00
37356;DHT22;48747;50.250;18.848;2023-04-24T11:26:38;19.60;54.30
37356;DHT22;48747;50.250;18.848;2023-04-24T11:28:48;19.70;55.30
37356;DHT22;48747;50.250;18.848;2023-04-24T11:30:53;19.60;54.50
37356;DHT22;48747;50.250;18.848;2023-04-24T11:33:03;19.50;54.70
37356;DHT22;48747;50.250;18.848;2023-04-24T11:35:15;19.50;55.00
37356;DHT22;48747;50.250;18.848;2023-04-24T11:37:19;19.50;55.70
37356;DHT22;48747;50.250;18.848;2023-04-24T11:39:24;19.40;56.60
37356;DHT22;48747;50.250;18.848;2023-04-24T11:41:29;19.40;57.10
37356;DHT22;48747;50.250;18.848;2023-04-24T11:43:38;19.40;57.20
37356;DHT22;48747;50.250;18.848;2023-04-24T11:45:47;19.30;56.60
37356;DHT22;48747;50.250;18.848;2023-04-24T11:47:47;19.30;56.80
37356;DHT22;48747;50.250;18.848;2023-04-24T11:49:52;19.20;56.40
37356;DHT22;48747;50.250;18.848;2023-04-24T11:51:56;19.10;56.40
37356;DHT22;48747;50.250;18.848;2023-04-24T11:54:00;19.10;57.20
37356;DHT22;48747;50.250;18.848;2023-04-24T11:56:04;19.10;58.30
37356;DHT22;48747;50.250;18.848;2023-04-24T11:58:10;19.20;57.00
37356;DHT22;48747;50.250;18.848;2023-04-24T12:00:19;19.20;57.80
37356;DHT22;48747;50.250;18.848;2023-04-24T12:02:24;19.20;58.10
37356;DHT22;48747;50.250;18.848;2023-04-24T12:04:38;19.20;58.20
37356;DHT22;48747;50.250;18.848;2023-04-24T12:06:35;19.30;58.00
37356;DHT22;48747;50.250;18.848;2023-04-24T12:08:38;19.30;57.80
37356;DHT22;48747;50.250;18.848;2023-04-24T12:10:43;19.40;58.90
37356;DHT22;48747;50.250;18.848;2023-04-24T12:12:46;19.30;58.80
37356;DHT22;48747;50.250;18.848;2023-04-24T12:14:53;19.30;59.30
37356;DHT22;48747;50.250;18.848;2023-04-24T12:16:57;19.20;59.00
37356;DHT22;48747;50.250;18.848;2023-04-24T12:19:00;19.20;59.60
37356;DHT22;48747;50.250;18.848;2023-04-24T12:21:21;19.20;59.90
37356;DHT22;48747;50.250;18.848;2023-04-24T12:23:36;19.20;60.40
37356;DHT22;48747;50.250;18.848;2023-04-24T12:25:39;19.20;60.40
37356;DHT22;48747;50.250;18.848;2023-04-24T12:27:52;19.10;60.50
37356;DHT22;48747;50.250;18.848;2023-04-24T12:29:57;19.00;60.90
37356;DHT22;48747;50.250;18.848;2023-04-24T12:32:15;19.00;61.40
37356;DHT22;48747;50.250;18.848;2023-04-24T12:34:21;19.10;61.80
37356;DHT22;48747;50.250;18.848;2023-04-24T12:36:30;19.10;61.80
37356;DHT22;48747;50.250;18.848;2023-04-24T12:38:43;19.20;61.90
37356;DHT22;48747;50.250;18.848;2023-04-24T12:41:02;19.30;62.10
37356;DHT22;48747;50.250;18.848;2023-04-24T12:43:23;19.40;61.20
37356;DHT22;48747;50.250;18.848;2023-04-24T12:45:30;19.50;61.60
37356;DHT22;48747;50.250;18.848;2023-04-24T12:47:34;19.40;61.00
37356;DHT22;48747;50.250;18.848;2023-04-24T12:49:40;19.30;60.70
37356;DHT22;48747;50.250;18.848;2023-04-24T12:51:45;19.30;60.80
37356;DHT22;48747;50.250;18.848;2023-04-24T12:53:48;19.40;60.80
37356;DHT22;48747;50.250;18.848;2023-04-24T12:55:53;19.30;61.40
37356;DHT22;48747;50.250;18.848;2023-04-24T12:58:01;19.40;61.10
37356;DHT22;48747;50.250;18.848;2023-04-24T13:00:05;19.40;61.60
37356;DHT22;48747;50.250;18.848;2023-04-24T13:02:09;19.50;60.80
37356;DHT22;48747;50.250;18.848;2023-04-24T13:04:12;19.50;61.50
37356;DHT22;48747;50.250;18.848;2023-04-24T13:06:21;19.50;61.90